Time;durP1;ratioP1;P1;durP2;ratioP2;P2;SDS_P1;SDS_P2;PMS_P1;PMS_P2;Temp;Humidity;BMP_temperature;BMP_pressure;BME280_temperature;BME280_humidity;BME280_pressure;Samples;Min_cycle;Max_cycle;Signal;HPM_P1;HPM_P2
2021/12/30 00:00:12;;;;;;;;;;;;;;;14.43;68.06;100638.75;1041871;28;732;-58
2021/12/30 00:01:03;;;;;;;;;;;;;;;14.43;67.80;100632.53;1041849;28;851;-58
2021/12/30 00:01:54;;;;;;;;;;;;;;;14.44;68.32;100624.38;1041875;28;692;-58
2021/12/30 00:02:44;;;;;;;;;;;;;;;14.46;67.69;100634.97;1041778;28;817;-59
2021/12/30 00:03:35;;;;;;;;;;;;;;;14.46;68.17;100632.28;1041861;28;679;-58
2021/12/30 00:04:25;;;;;;;;;;;;;;;14.46;67.80;100634.97;1041799;28;754;-58
2021/12/30 00:05:16;;;;;;;;;;;;;;;14.45;68.10;100630.59;1041902;28;760;-58
2021/12/30 00:06:07;;;;;;;;;;;;;;;14.45;67.82;100630.59;1041757;28;736;-58
2021/12/30 00:06:57;;;;;;;;;;;;;;;14.44;67.65;100635.09;1042390;28;902;-58
2021/12/30 00:07:48;;;;;;;;;;;;;;;14.44;68.04;100636.94;1041740;28;828;-58
2021/12/30 00:08:38;;;;;;;;;;;;;;;14.43;67.52;100633.41;1042395;28;630;-58
2021/12/30 00:09:29;;;;;;;;;;;;;;;14.44;67.79;100639.59;1041690;28;837;-58
2021/12/30 00:10:19;;;;;;;;;;;;;;;14.44;67.72;100640.47;1041871;28;942;-58
2021/12/30 00:11:09;;;;;;;;;;;;;;;14.42;67.82;100639.72;1041799;28;1099;-58
2021/12/30 00:12:00;;;;;;;;;;;;;;;14.41;67.88;100635.34;1041888;28;790;-59
2021/12/30 00:12:52;;;;;;;;;;;;;;;14.41;68.01;100638.03;1041849;28;669;-59
2021/12/30 00:13:45;;;;;;;;;;;;;;;14.40;67.49;100643.47;1041819;28;754;-59
2021/12/30 00:14:35;;;;;;;;;;;;;;;14.41;68.11;100645.22;1041835;28;647;-59
2021/12/30 00:15:26;;;;;;;;;;;;;;;14.41;68.08;100647.91;1041629;28;982;-59
2021/12/30 00:16:16;;;;;;;;;;;;;;;14.41;68.12;100647.91;1041840;28;726;-60
2021/12/30 00:17:06;;;;;;;;;;;;;;;14.41;68.27;100650.59;1041748;28;736;-60
2021/12/30 00:17:57;;;;;;;;;;;;;;;14.39;67.69;100642.63;1041817;28;783;-59
2021/12/30 00:18:47;;;;;;;;;;;;;;;14.40;67.76;100644.38;1042247;28;812;-60
2021/12/30 00:19:38;;;;;;;;;;;;;;;14.40;67.77;100643.47;1041723;28;740;-60
2021/12/30 00:20:28;;;;;;;;;;;;;;;14.40;67.47;100643.47;1041770;28;634;-60
2021/12/30 00:21:20;;;;;;;;;;;;;;;14.39;67.61;100637.28;1041719;28;1706;-60
2021/12/30 00:22:11;;;;;;;;;;;;;;;14.39;68.14;100637.28;1041759;28;764;-60
2021/12/30 00:23:03;;;;;;;;;;;;;;;14.39;68.36;100637.28;1041851;28;746;-60
2021/12/30 00:23:53;;;;;;;;;;;;;;;14.40;67.67;100643.47;1041680;28;733;-60
2021/12/30 00:24:44;;;;;;;;;;;;;;;14.39;67.84;100629.22;1041915;28;621;-60
2021/12/30 00:25:39;;;;;;;;;;;;;;;14.40;67.84;100639.00;1041778;28;689;-60
2021/12/30 00:26:29;;;;;;;;;;;;;;;14.40;68.25;100627.41;1041090;28;633;-61
2021/12/30 00:27:20;;;;;;;;;;;;;;;14.40;67.65;100630.09;1041162;28;754;-60
2021/12/30 00:28:10;;;;;;;;;;;;;;;14.41;67.71;100632.66;1041633;28;877;-61
2021/12/30 00:29:00;;;;;;;;;;;;;;;14.41;67.75;100637.19;1041670;28;696;-61
2021/12/30 00:29:51;;;;;;;;;;;;;;;14.39;67.99;100631.91;1041854;28;949;-61
2021/12/30 00:30:41;;;;;;;;;;;;;;;14.40;68.19;100628.28;1041560;28;1002;-60
2021/12/30 00:31:32;;;;;;;;;;;;;;;14.38;67.55;100621.31;1041694;28;967;-60
2021/12/30 00:32:22;;;;;;;;;;;;;;;14.38;68.25;100624.84;1041555;28;918;-59
2021/12/30 00:33:13;;;;;;;;;;;;;;;14.38;67.71;100624.00;1041743;28;764;-60
2021/12/30 00:34:03;;;;;;;;;;;;;;;14.37;67.93;100630.34;1041754;28;747;-60
2021/12/30 00:34:53;;;;;;;;;;;;;;;14.38;68.33;100632.88;1041814;28;734;-60
2021/12/30 00:35:44;;;;;;;;;;;;;;;14.38;67.57;100624.84;1041813;28;1894;-59
2021/12/30 00:36:34;;;;;;;;;;;;;;;14.38;67.79;100624.84;1041608;28;853;-60
2021/12/30 00:37:25;;;;;;;;;;;;;;;14.38;67.80;100629.34;1041741;28;818;-60
2021/12/30 00:38:15;;;;;;;;;;;;;;;14.39;67.71;100633.75;1041704;28;805;-60
2021/12/30 00:39:05;;;;;;;;;;;;;;;14.40;68.02;100632.75;1041618;28;638;-60
2021/12/30 00:39:56;;;;;;;;;;;;;;;14.39;67.47;100633.75;1041768;28;864;-60
2021/12/30 00:40:46;;;;;;;;;;;;;;;14.38;68.35;100630.22;1041560;28;926;-59
2021/12/30 00:41:37;;;;;;;;;;;;;;;14.37;68.33;100636.53;1041654;28;639;-59
2021/12/30 00:42:27;;;;;;;;;;;;;;;14.38;68.28;100629.34;1041305;28;866;-60
2021/12/30 00:43:17;;;;;;;;;;;;;;;14.38;67.71;100642.75;1041490;28;802;-60
2021/12/30 00:44:08;;;;;;;;;;;;;;;14.40;68.38;100638.13;1041190;28;697;-59
2021/12/30 00:44:58;;;;;;;;;;;;;;;14.40;68.19;100632.75;1041635;28;851;-60
2021/12/30 00:45:49;;;;;;;;;;;;;;;14.39;67.84;100641.78;1041673;28;645;-59
2021/12/30 00:46:39;;;;;;;;;;;;;;;14.40;68.14;100635.44;1041607;28;831;-59
2021/12/30 00:47:29;;;;;;;;;;;;;;;14.41;68.38;100630.00;1041431;28;1210;-60
2021/12/30 00:48:20;;;;;;;;;;;;;;;14.41;67.61;100642.53;1041699;28;706;-60
2021/12/30 00:49:13;;;;;;;;;;;;;;;14.41;67.71;100647.91;1040980;28;692;-59
2021/12/30 00:50:03;;;;;;;;;;;;;;;14.40;67.95;100651.53;1041728;28;710;-59
2021/12/30 00:50:53;;;;;;;;;;;;;;;14.39;68.14;100644.47;1041583;28;967;-59
2021/12/30 00:51:44;;;;;;;;;;;;;;;14.37;67.65;100647.28;1041614;28;595;-60
2021/12/30 00:52:34;;;;;;;;;;;;;;;14.39;68.01;100648.00;1041636;28;689;-59
2021/12/30 00:53:25;;;;;;;;;;;;;;;14.40;68.23;100654.22;1041194;28;680;-60
2021/12/30 00:54:15;;;;;;;;;;;;;;;14.40;67.92;100651.53;1041721;28;703;-59
2021/12/30 00:55:06;;;;;;;;;;;;;;;14.39;67.53;100648.00;1041615;28;972;-60
2021/12/30 00:55:56;;;;;;;;;;;;;;;14.38;67.79;100656.16;1041541;28;1965;-60
2021/12/30 00:56:47;;;;;;;;;;;;;;;14.39;67.95;100658.72;1041632;28;717;-60
2021/12/30 00:57:37;;;;;;;;;;;;;;;14.38;68.08;100662.38;1041754;28;709;-59
2021/12/30 00:58:28;;;;;;;;;;;;;;;14.38;67.67;100661.53;1041534;28;649;-59
2021/12/30 00:59:18;;;;;;;;;;;;;;;14.37;68.20;100665.19;1041597;28;800;-60
2021/12/30 01:00:08;;;;;;;;;;;;;;;14.37;67.78;100671.41;1040894;28;784;-59
2021/12/30 01:00:59;;;;;;;;;;;;;;;14.35;67.51;100667.13;1041727;28;1383;-60
2021/12/30 01:01:49;;;;;;;;;;;;;;;14.36;68.43;100671.53;1041621;28;638;-59
2021/12/30 01:02:40;;;;;;;;;;;;;;;14.37;68.16;100665.19;1041718;28;720;-59
2021/12/30 01:03:30;;;;;;;;;;;;;;;14.39;67.56;100671.28;1041471;28;769;-60
2021/12/30 01:04:21;;;;;;;;;;;;;;;14.37;68.49;100670.53;1041668;28;721;-60
2021/12/30 01:05:11;;;;;;;;;;;;;;;14.35;67.99;100670.66;1041558;28;810;-60
2021/12/30 01:06:02;;;;;;;;;;;;;;;14.36;67.71;100674.19;1041638;28;713;-59
2021/12/30 01:06:52;;;;;;;;;;;;;;;14.37;68.42;100675.91;1041615;28;700;-59
2021/12/30 01:07:43;;;;;;;;;;;;;;;14.38;67.71;100666.88;1040943;28;846;-59
2021/12/30 01:08:33;;;;;;;;;;;;;;;14.38;67.63;100666.88;1040940;28;779;-59
2021/12/30 01:09:24;;;;;;;;;;;;;;;14.37;68.25;100670.53;1041660;28;723;-59
2021/12/30 01:10:14;;;;;;;;;;;;;;;14.37;68.39;100673.22;1045081;28;1729;-59
2021/12/30 01:11:07;;;;;;;;;;;;;;;14.38;68.04;100666.88;1046385;28;849;-59
2021/12/30 01:11:56;;;;;;;;;;;;;;;14.38;68.12;100678.47;1046130;28;1125;-59
2021/12/30 01:12:45;;;;;;;;;;;;;;;14.37;68.32;100667.88;1046449;28;798;-59
2021/12/30 01:13:38;;;;;;;;;;;;;;;14.37;68.16;100663.34;1046352;28;796;-59
2021/12/30 01:14:29;;;;;;;;;;;;;;;14.36;68.02;100668.84;1046387;28;790;-59
2021/12/30 01:15:19;;;;;;;;;;;;;;;14.36;67.72;100675.06;1046320;28;1012;-59
2021/12/30 01:16:17;;;;;;;;;;;;;;;14.36;67.93;100667.00;1045640;28;773;-57
2021/12/30 01:18:29;;;;;;;;;;;;;;;14.35;68.05;100668.00;1035821;28;1428;-59
2021/12/30 01:19:42;;;;;;;;;;;;;;;14.36;67.87;100679.56;1046217;28;780;-59
2021/12/30 01:20:32;;;;;;;;;;;;;;;14.38;67.87;100673.09;1045732;28;776;-59
2021/12/30 01:21:23;;;;;;;;;;;;;;;14.37;68.07;100671.41;1045712;28;684;-59
2021/12/30 01:22:13;;;;;;;;;;;;;;;14.37;68.39;100670.53;1045707;28;795;-59
2021/12/30 01:23:03;;;;;;;;;;;;;;;14.37;67.82;100667.88;1045689;28;733;-59
2021/12/30 01:23:54;;;;;;;;;;;;;;;14.38;68.46;100669.56;1045625;28;675;-59
2021/12/30 01:24:44;;;;;;;;;;;;;;;14.38;68.34;100677.63;1045699;28;733;-59
2021/12/30 01:25:35;;;;;;;;;;;;;;;14.37;67.83;100675.91;1045628;28;637;-59
2021/12/30 01:26:25;;;;;;;;;;;;;;;14.37;68.46;100675.91;1045638;28;821;-59
2021/12/30 01:27:15;;;;;;;;;;;;;;;14.38;68.14;100677.63;1045491;28;762;-59
2021/12/30 01:28:06;;;;;;;;;;;;;;;14.39;67.99;100671.28;1045714;28;733;-59
2021/12/30 01:28:56;;;;;;;;;;;;;;;14.38;68.24;100674.94;1045620;28;703;-60
2021/12/30 01:29:47;;;;;;;;;;;;;;;14.38;67.92;100678.47;1045624;28;663;-59
2021/12/30 01:30:37;;;;;;;;;;;;;;;14.38;68.35;100678.47;1045571;28;1024;-59
2021/12/30 01:31:28;;;;;;;;;;;;;;;14.38;68.24;100675.78;1045596;28;716;-59
2021/12/30 01:32:18;;;;;;;;;;;;;;;14.38;68.32;100677.63;1045598;28;701;-59
2021/12/30 01:33:08;;;;;;;;;;;;;;;14.38;68.51;100677.63;1045571;28;699;-59
2021/12/30 01:33:59;;;;;;;;;;;;;;;14.38;68.35;100678.47;1045644;28;686;-59
2021/12/30 01:34:49;;;;;;;;;;;;;;;14.38;67.91;100697.22;1045657;28;833;-60
2021/12/30 01:35:40;;;;;;;;;;;;;;;14.38;67.85;100685.66;1045643;28;1894;-60
2021/12/30 01:36:30;;;;;;;;;;;;;;;14.37;68.35;100692.00;1045767;28;657;-59
2021/12/30 01:37:23;;;;;;;;;;;;;;;14.37;67.70;100682.13;1045591;28;696;-60
2021/12/30 01:38:16;;;;;;;;;;;;;;;14.37;68.41;100689.31;1045630;28;743;-60
2021/12/30 01:39:06;;;;;;;;;;;;;;;14.37;67.75;100678.59;1045591;28;752;-59
2021/12/30 01:39:56;;;;;;;;;;;;;;;14.36;67.89;100693.81;1041684;28;814;-61
2021/12/30 01:40:47;;;;;;;;;;;;;;;14.38;68.56;100682.97;1041286;28;569;-60
2021/12/30 01:41:37;;;;;;;;;;;;;;;14.36;68.47;100688.47;1044875;28;693;-60
2021/12/30 01:42:30;;;;;;;;;;;;;;;14.36;68.03;100690.28;1046285;28;697;-60
2021/12/30 01:43:21;;;;;;;;;;;;;;;14.38;68.31;100693.69;1045367;28;1015;-60
2021/12/30 01:44:11;;;;;;;;;;;;;;;14.37;68.15;100697.34;1045657;28;778;-60
2021/12/30 01:45:01;;;;;;;;;;;;;;;14.36;68.72;100698.34;1045425;28;703;-59
2021/12/30 01:45:52;;;;;;;;;;;;;;;14.37;68.46;100692.00;1045681;28;834;-59
2021/12/30 01:46:42;;;;;;;;;;;;;;;14.36;67.74;100703.69;1045567;28;614;-60
2021/12/30 01:47:33;;;;;;;;;;;;;;;14.36;68.47;100695.66;1045471;28;1287;-59
2021/12/30 01:48:23;;;;;;;;;;;;;;;14.36;68.50;100707.22;1045531;28;753;-59
2021/12/30 01:49:14;;;;;;;;;;;;;;;14.37;68.18;100708.06;1045543;28;831;-60
2021/12/30 01:50:04;;;;;;;;;;;;;;;14.37;68.21;100705.41;1045640;28;714;-60
2021/12/30 01:50:55;;;;;;;;;;;;;;;14.37;68.40;100713.44;1045597;28;601;-60
2021/12/30 01:51:45;;;;;;;;;;;;;;;14.37;68.02;100713.44;1045620;28;783;-60
2021/12/30 01:52:35;;;;;;;;;;;;;;;14.38;68.70;100715.16;1041718;28;728;-59
2021/12/30 01:53:26;;;;;;;;;;;;;;;14.38;67.97;100723.19;1041126;28;733;-60
2021/12/30 01:54:16;;;;;;;;;;;;;;;14.37;68.48;100716.97;1045432;28;761;-60
2021/12/30 01:55:07;;;;;;;;;;;;;;;14.36;68.12;100711.72;1045496;28;836;-61
2021/12/30 01:55:57;;;;;;;;;;;;;;;14.36;68.63;100717.09;1045592;28;1902;-60
2021/12/30 01:56:50;;;;;;;;;;;;;;;14.34;68.16;100719.06;1045501;28;617;-60
2021/12/30 01:57:40;;;;;;;;;;;;;;;14.34;68.96;100719.06;1045648;28;779;-60
2021/12/30 01:58:31;;;;;;;;;;;;;;;14.35;68.04;100720.75;1045408;28;606;-59
2021/12/30 01:59:21;;;;;;;;;;;;;;;14.34;68.70;100719.06;1045597;28;730;-59
2021/12/30 02:00:11;;;;;;;;;;;;;;;14.35;68.88;100715.38;1045478;28;684;-59
2021/12/30 02:01:02;;;;;;;;;;;;;;;14.35;68.43;100720.75;1045565;28;713;-59
2021/12/30 02:01:56;;;;;;;;;;;;;;;14.36;68.20;100717.09;1045501;28;930;-60
2021/12/30 02:02:46;;;;;;;;;;;;;;;14.36;67.89;100709.06;1045443;28;689;-59
2021/12/30 02:03:37;;;;;;;;;;;;;;;14.38;68.73;100715.16;1045413;28;748;-59
2021/12/30 02:04:27;;;;;;;;;;;;;;;14.38;68.23;100715.16;1045560;28;705;-59
2021/12/30 02:05:18;;;;;;;;;;;;;;;14.35;68.20;100713.56;1045426;28;674;-59
2021/12/30 02:06:08;;;;;;;;;;;;;;;14.36;68.00;100711.72;1045478;28;860;-57
2021/12/30 02:06:59;;;;;;;;;;;;;;;14.36;69.01;100717.09;1045494;28;780;-60
2021/12/30 02:07:49;;;;;;;;;;;;;;;14.37;68.43;100721.47;1045528;28;792;-59
2021/12/30 02:08:39;;;;;;;;;;;;;;;14.36;68.25;100723.31;1045437;28;630;-60
2021/12/30 02:09:31;;;;;;;;;;;;;;;14.36;67.94;100733.19;1041650;28;931;-60
2021/12/30 02:10:21;;;;;;;;;;;;;;;14.36;68.77;100723.31;1041071;28;709;-60
2021/12/30 02:11:12;;;;;;;;;;;;;;;14.36;69.21;100723.31;1044734;28;674;-60
2021/12/30 02:12:04;;;;;;;;;;;;;;;14.37;68.37;100724.16;1045588;28;1120;-60
2021/12/30 02:12:55;;;;;;;;;;;;;;;14.38;68.31;100732.09;1045503;28;771;-60
2021/12/30 02:13:46;;;;;;;;;;;;;;;14.38;68.66;100732.09;1045528;28;680;-60
2021/12/30 02:14:37;;;;;;;;;;;;;;;14.37;68.91;100730.38;1045396;28;847;-60
2021/12/30 02:15:27;;;;;;;;;;;;;;;14.38;68.54;100725.88;1045482;28;916;-60
2021/12/30 02:16:18;;;;;;;;;;;;;;;14.38;68.08;100725.88;1045317;28;752;-60
2021/12/30 02:17:09;;;;;;;;;;;;;;;14.38;68.92;100718.69;1045414;28;792;-60
2021/12/30 02:18:01;;;;;;;;;;;;;;;14.37;68.94;100711.59;1045520;28;625;-60
2021/12/30 02:18:52;;;;;;;;;;;;;;;14.37;68.53;100710.75;1045387;28;716;-60
2021/12/30 02:19:43;;;;;;;;;;;;;;;14.37;68.93;100705.41;1045425;28;645;-60
2021/12/30 02:20:33;;;;;;;;;;;;;;;14.37;68.69;100700.88;1045367;28;700;-60
2021/12/30 02:21:24;;;;;;;;;;;;;;;14.36;68.80;100701.88;1041097;28;1462;-59
2021/12/30 02:22:14;;;;;;;;;;;;;;;14.35;68.43;100700.16;1041285;28;712;-60
2021/12/30 02:23:04;;;;;;;;;;;;;;;14.35;68.77;100700.16;1041211;28;860;-59
2021/12/30 02:23:57;;;;;;;;;;;;;;;14.35;68.47;100700.16;1041255;28;641;-60
2021/12/30 02:24:47;;;;;;;;;;;;;;;14.35;68.66;100693.94;1041374;28;822;-60
2021/12/30 02:25:38;;;;;;;;;;;;;;;14.34;69.19;100690.41;1041355;28;768;-60
2021/12/30 02:26:28;;;;;;;;;;;;;;;14.37;68.90;100700.03;1041422;28;736;-60
2021/12/30 02:27:19;;;;;;;;;;;;;;;14.36;68.62;100701.88;1041275;28;761;-60
2021/12/30 02:28:09;;;;;;;;;;;;;;;14.35;69.11;100696.63;1041303;28;682;-60
2021/12/30 02:28:59;;;;;;;;;;;;;;;14.34;68.70;100697.59;1041199;28;862;-60
2021/12/30 02:29:50;;;;;;;;;;;;;;;14.34;68.67;100694.94;1041380;28;641;-60
2021/12/30 02:30:40;;;;;;;;;;;;;;;14.35;68.69;100689.44;1041299;28;1540;-60
2021/12/30 02:31:31;;;;;;;;;;;;;;;14.36;68.48;100696.50;1041178;28;709;-63
2021/12/30 02:32:21;;;;;;;;;;;;;;;14.34;68.47;100701.13;1041279;28;697;-60
2021/12/30 02:33:12;;;;;;;;;;;;;;;14.34;68.67;100702.97;1041154;28;755;-60
2021/12/30 02:34:02;;;;;;;;;;;;;;;14.34;68.19;100703.81;1041258;28;719;-60
2021/12/30 02:34:52;;;;;;;;;;;;;;;14.34;68.66;100706.50;1041291;28;665;-60
2021/12/30 02:35:43;;;;;;;;;;;;;;;14.34;68.73;100705.66;1041230;28;1894;-59
2021/12/30 02:36:33;;;;;;;;;;;;;;;14.34;68.87;100702.97;1037338;28;715;-59
2021/12/30 02:37:24;;;;;;;;;;;;;;;14.33;68.87;100701.28;1037385;28;770;-60
2021/12/30 02:38:14;;;;;;;;;;;;;;;14.32;68.37;100708.47;1037432;28;763;-59
2021/12/30 02:39:05;;;;;;;;;;;;;;;14.32;68.88;100703.13;1037930;28;742;-59
2021/12/30 02:39:56;;;;;;;;;;;;;;;14.32;69.04;100704.94;1037363;28;804;-59
2021/12/30 02:40:46;;;;;;;;;;;;;;;14.34;68.70;100713.69;1037561;28;677;-59
2021/12/30 02:41:38;;;;;;;;;;;;;;;14.34;68.85;100721.72;1041073;28;773;-59
2021/12/30 02:42:28;;;;;;;;;;;;;;;14.34;68.92;100716.38;1041332;28;705;-60
2021/12/30 02:43:18;;;;;;;;;;;;;;;14.33;68.37;100717.38;1041310;28;795;-60
2021/12/30 02:44:09;;;;;;;;;;;;;;;14.34;69.30;100732.44;1041263;28;714;-60
2021/12/30 02:44:59;;;;;;;;;;;;;;;14.35;68.61;100731.47;1041303;28;784;-60
2021/12/30 02:45:50;;;;;;;;;;;;;;;14.34;68.49;100719.06;1041081;28;876;-59
2021/12/30 02:46:40;;;;;;;;;;;;;;;14.33;69.09;100722.75;1041315;28;760;-60
2021/12/30 02:47:31;;;;;;;;;;;;;;;14.33;69.32;100720.88;1041063;28;1235;-60
2021/12/30 02:48:21;;;;;;;;;;;;;;;14.34;69.27;100727.09;1041244;28;763;-60
2021/12/30 02:49:11;;;;;;;;;;;;;;;14.34;68.77;100724.41;1041053;28;672;-60
2021/12/30 02:50:02;;;;;;;;;;;;;;;14.36;68.84;100727.81;1041139;28;940;-59
2021/12/30 02:50:52;;;;;;;;;;;;;;;14.36;68.75;100727.81;1041306;28;728;-60
2021/12/30 02:51:43;;;;;;;;;;;;;;;14.37;68.90;100737.56;1041261;28;771;-60
2021/12/30 02:52:33;;;;;;;;;;;;;;;14.37;69.42;100737.56;1041208;28;559;-60
2021/12/30 02:53:24;;;;;;;;;;;;;;;14.37;69.19;100742.94;1041161;28;729;-60
2021/12/30 02:54:14;;;;;;;;;;;;;;;14.35;68.70;100739.53;1041190;28;933;-60
2021/12/30 02:55:04;;;;;;;;;;;;;;;14.34;68.75;100737.81;1041091;28;748;-60
2021/12/30 02:55:55;;;;;;;;;;;;;;;14.34;69.65;100741.34;1041093;28;1905;-60
2021/12/30 02:56:47;;;;;;;;;;;;;;;14.36;68.69;100735.88;1041232;28;705;-59
2021/12/30 02:57:37;;;;;;;;;;;;;;;14.34;68.89;100741.34;1041254;28;794;-60
2021/12/30 02:58:28;;;;;;;;;;;;;;;14.33;68.87;100747.69;1037349;28;856;-59
2021/12/30 02:59:19;;;;;;;;;;;;;;;14.33;68.85;100734.28;1037338;28;749;-60
2021/12/30 03:00:10;;;;;;;;;;;;;;;14.33;68.71;100736.97;1041129;28;760;-60
2021/12/30 03:01:00;;;;;;;;;;;;;;;14.32;68.76;100743.34;1037389;28;806;-60
2021/12/30 03:01:51;;;;;;;;;;;;;;;14.33;69.25;100752.22;1036851;28;705;-60
2021/12/30 03:02:42;;;;;;;;;;;;;;;14.33;69.09;100744.19;1041083;28;797;-60
2021/12/30 03:03:32;;;;;;;;;;;;;;;14.33;69.24;100746.88;1041145;28;654;-60
2021/12/30 03:04:23;;;;;;;;;;;;;;;14.33;68.73;100742.31;1041067;28;783;-60
2021/12/30 03:05:13;;;;;;;;;;;;;;;14.33;68.65;100742.31;1041168;28;721;-60
2021/12/30 03:06:03;;;;;;;;;;;;;;;14.33;69.16;100745.00;1041190;28;727;-60
2021/12/30 03:06:54;;;;;;;;;;;;;;;14.33;68.66;100738.81;1041120;28;770;-60
2021/12/30 03:07:44;;;;;;;;;;;;;;;14.33;68.79;100739.63;1041237;28;803;-60
2021/12/30 03:08:35;;;;;;;;;;;;;;;14.33;68.87;100750.38;1041169;28;776;-60
2021/12/30 03:09:25;;;;;;;;;;;;;;;14.33;69.27;100742.31;1041226;28;846;-60
2021/12/30 03:10:16;;;;;;;;;;;;;;;14.32;69.04;100743.34;1041035;28;823;-60
2021/12/30 03:11:06;;;;;;;;;;;;;;;14.33;68.69;100749.53;1041170;28;914;-60
2021/12/30 03:11:56;;;;;;;;;;;;;;;14.33;68.61;100738.81;1040917;28;1226;-59
2021/12/30 03:12:53;;;;;;;;;;;;;;;14.32;68.58;100737.13;1041020;28;886;-59
2021/12/30 03:13:44;;;;;;;;;;;;;;;14.32;69.34;100742.47;1041095;28;656;-59
2021/12/30 03:14:34;;;;;;;;;;;;;;;14.30;68.69;100747.97;1040949;28;626;-59
2021/12/30 03:15:27;;;;;;;;;;;;;;;14.30;68.92;100747.13;1040960;28;1081;-60
2021/12/30 03:16:17;;;;;;;;;;;;;;;14.30;69.19;100749.78;1041230;28;746;-59
2021/12/30 03:17:08;;;;;;;;;;;;;;;14.30;68.93;100753.31;1041035;28;871;-60
2021/12/30 03:17:58;;;;;;;;;;;;;;;14.31;68.74;100756.84;1041190;28;818;-60
2021/12/30 03:18:49;;;;;;;;;;;;;;;14.31;68.85;100751.50;1041030;28;722;-60
2021/12/30 03:19:39;;;;;;;;;;;;;;;14.29;68.78;100758.81;1040983;28;693;-59
2021/12/30 03:20:30;;;;;;;;;;;;;;;14.30;69.30;100755.16;1041342;28;1792;-60
2021/12/30 03:21:20;;;;;;;;;;;;;;;14.30;69.18;100749.78;1040688;28;1556;-60
2021/12/30 03:22:12;;;;;;;;;;;;;;;14.30;69.09;100760.50;1040993;28;773;-60
2021/12/30 03:23:02;;;;;;;;;;;;;;;14.30;68.93;100755.16;1040344;28;740;-59
2021/12/30 03:23:53;;;;;;;;;;;;;;;14.29;69.05;100756.13;1040961;28;704;-60
2021/12/30 03:24:43;;;;;;;;;;;;;;;14.28;68.78;100751.75;1040683;28;705;-59
2021/12/30 03:25:34;;;;;;;;;;;;;;;14.26;69.40;100757.22;1041158;28;851;-59
2021/12/30 03:26:24;;;;;;;;;;;;;;;14.28;68.87;100754.41;1041159;28;808;-59
2021/12/30 03:27:14;;;;;;;;;;;;;;;14.28;69.82;100751.75;1040945;28;690;-59
2021/12/30 03:28:05;;;;;;;;;;;;;;;14.27;69.04;100755.41;1040559;28;707;-60
2021/12/30 03:28:55;;;;;;;;;;;;;;;14.27;69.44;100742.84;1041668;28;669;-61
2021/12/30 03:29:46;;;;;;;;;;;;;;;14.27;69.03;100739.31;1040963;28;944;-59
2021/12/30 03:30:36;;;;;;;;;;;;;;;14.27;69.08;100731.28;1041005;28;913;-59
2021/12/30 03:31:27;;;;;;;;;;;;;;;14.27;69.63;100723.22;1040447;28;918;-59
2021/12/30 03:32:17;;;;;;;;;;;;;;;14.28;69.57;100720.44;1040307;28;744;-60
2021/12/30 03:33:08;;;;;;;;;;;;;;;14.26;69.03;100722.38;1036632;28;822;-59
2021/12/30 03:33:58;;;;;;;;;;;;;;;14.29;69.55;100726.66;1036669;28;727;-61
2021/12/30 03:34:49;;;;;;;;;;;;;;;14.30;69.67;100725.66;1040541;28;719;-61
2021/12/30 03:35:39;;;;;;;;;;;;;;;14.31;68.87;100730.06;1041069;28;784;-60
2021/12/30 03:36:31;;;;;;;;;;;;;;;14.31;69.44;100727.38;1041579;28;858;-59
2021/12/30 03:37:22;;;;;;;;;;;;;;;14.30;69.07;100725.66;1041105;28;770;-60
2021/12/30 03:38:12;;;;;;;;;;;;;;;14.29;68.89;100727.50;1041079;28;703;-59
2021/12/30 03:39:03;;;;;;;;;;;;;;;14.29;69.76;100722.13;1040965;28;685;-58
2021/12/30 03:39:53;;;;;;;;;;;;;;;14.29;69.32;100715.91;1040997;28;850;-58
2021/12/30 03:40:44;;;;;;;;;;;;;;;14.28;69.05;100720.44;1041025;28;719;-59
2021/12/30 03:41:34;;;;;;;;;;;;;;;14.28;69.28;100720.44;1041247;28;740;-58
2021/12/30 03:42:24;;;;;;;;;;;;;;;14.28;68.87;100725.78;1040773;28;966;-58
2021/12/30 03:43:15;;;;;;;;;;;;;;;14.27;69.47;100724.09;1041032;28;776;-59
2021/12/30 03:44:05;;;;;;;;;;;;;;;14.28;69.07;100719.56;1040453;28;787;-58
2021/12/30 03:44:57;;;;;;;;;;;;;;;14.28;69.92;100725.78;1041011;28;706;-59
2021/12/30 03:45:47;;;;;;;;;;;;;;;14.28;69.46;100719.56;1041011;28;742;-59
2021/12/30 03:46:38;;;;;;;;;;;;;;;14.27;69.18;100720.56;1040333;28;705;-59
2021/12/30 03:47:28;;;;;;;;;;;;;;;14.27;69.27;100717.88;1042311;28;1854;-59
2021/12/30 03:48:19;;;;;;;;;;;;;;;14.27;69.48;100724.09;1044961;28;792;-59
2021/12/30 03:49:10;;;;;;;;;;;;;;;14.28;70.02;100724.94;1045222;28;704;-59
2021/12/30 03:50:00;;;;;;;;;;;;;;;14.28;69.80;100724.94;1045261;28;723;-59
2021/12/30 03:50:52;;;;;;;;;;;;;;;14.27;69.03;100729.44;1040737;28;1087;-59
2021/12/30 03:51:42;;;;;;;;;;;;;;;14.28;69.47;100727.63;1040819;28;1009;-59
2021/12/30 03:52:33;;;;;;;;;;;;;;;14.27;69.19;100728.59;1041368;28;828;-59
2021/12/30 03:53:23;;;;;;;;;;;;;;;14.27;69.40;100728.59;1041477;28;724;-59
2021/12/30 03:54:14;;;;;;;;;;;;;;;14.27;69.75;100734.81;1041464;28;776;-60
2021/12/30 03:55:05;;;;;;;;;;;;;;;14.28;69.50;100730.28;1040897;28;743;-59
2021/12/30 03:55:55;;;;;;;;;;;;;;;14.28;69.61;100733.84;1041604;28;1961;-59
2021/12/30 03:56:46;;;;;;;;;;;;;;;14.27;69.73;100732.13;1040919;28;833;-60
2021/12/30 03:57:36;;;;;;;;;;;;;;;14.27;69.31;100740.16;1041050;28;634;-59
2021/12/30 03:58:26;;;;;;;;;;;;;;;14.25;69.49;100732.25;1041717;28;673;-60
2021/12/30 03:59:17;;;;;;;;;;;;;;;14.25;69.75;100737.59;1041725;28;708;-60
2021/12/30 04:00:07;;;;;;;;;;;;;;;14.27;69.48;100744.69;1041693;28;805;-59
2021/12/30 04:00:58;;;;;;;;;;;;;;;14.25;69.50;100737.59;1041471;28;860;-60
2021/12/30 04:01:48;;;;;;;;;;;;;;;14.25;70.02;100744.78;1041683;28;613;-59
2021/12/30 04:02:38;;;;;;;;;;;;;;;14.25;69.82;100750.16;1041653;28;830;-59
2021/12/30 04:03:29;;;;;;;;;;;;;;;14.24;69.54;100743.94;1041692;28;617;-59
2021/12/30 04:04:19;;;;;;;;;;;;;;;14.24;69.34;100745.78;1041676;28;751;-59
2021/12/30 04:05:10;;;;;;;;;;;;;;;14.24;69.43;100746.63;1041533;28;932;-58
2021/12/30 04:06:00;;;;;;;;;;;;;;;14.24;69.54;100757.34;1041643;28;790;-59
2021/12/30 04:06:50;;;;;;;;;;;;;;;14.24;69.35;100753.81;1041645;28;884;-59
2021/12/30 04:07:41;;;;;;;;;;;;;;;14.24;69.56;100757.34;1041582;28;629;-59
2021/12/30 04:08:31;;;;;;;;;;;;;;;14.23;69.39;100758.31;1041569;28;573;-59
2021/12/30 04:09:22;;;;;;;;;;;;;;;14.24;70.05;100757.34;1041427;28;839;-58
2021/12/30 04:10:13;;;;;;;;;;;;;;;14.25;69.68;100759.06;1041625;28;684;-57
2021/12/30 04:11:03;;;;;;;;;;;;;;;14.25;69.50;100759.06;1041080;28;756;-58
2021/12/30 04:11:54;;;;;;;;;;;;;;;14.25;69.93;100761.72;1041613;28;1186;-58
2021/12/30 04:12:44;;;;;;;;;;;;;;;14.25;69.48;100759.06;1041623;28;748;-59
2021/12/30 04:13:35;;;;;;;;;;;;;;;14.27;69.90;100758.94;1040832;28;780;-58
2021/12/30 04:14:26;;;;;;;;;;;;;;;14.27;69.48;100768.81;1041506;28;693;-58
2021/12/30 04:15:16;;;;;;;;;;;;;;;14.27;69.81;100766.97;1040940;28;850;-58
2021/12/30 04:16:07;;;;;;;;;;;;;;;14.27;70.00;100766.13;1041511;28;1899;-58
2021/12/30 04:16:57;;;;;;;;;;;;;;;14.27;69.72;100776.84;1041598;28;787;-58
2021/12/30 04:17:48;;;;;;;;;;;;;;;14.26;69.89;100770.63;1041609;28;848;-58
2021/12/30 04:18:38;;;;;;;;;;;;;;;14.26;69.83;100776.00;1041403;28;716;-58
2021/12/30 04:19:28;;;;;;;;;;;;;;;14.26;69.72;100770.63;1041002;28;738;-58
2021/12/30 04:20:19;;;;;;;;;;;;;;;14.25;69.50;100775.13;1041565;28;699;-58
2021/12/30 04:21:09;;;;;;;;;;;;;;;14.25;70.36;100775.13;1043625;28;1503;-58
2021/12/30 04:22:00;;;;;;;;;;;;;;;14.27;69.92;100776.84;1045093;28;786;-59
2021/12/30 04:22:50;;;;;;;;;;;;;;;14.25;69.55;100777.81;1045245;28;1093;-59
2021/12/30 04:23:40;;;;;;;;;;;;;;;14.25;70.14;100767.09;1044938;28;784;-59
2021/12/30 04:24:31;;;;;;;;;;;;;;;14.24;69.47;100765.38;1044846;28;738;-59
2021/12/30 04:25:21;;;;;;;;;;;;;;;14.23;69.77;100766.38;1045121;28;752;-58
2021/12/30 04:26:12;;;;;;;;;;;;;;;14.23;69.87;100765.50;1045077;28;850;-58
2021/12/30 04:27:02;;;;;;;;;;;;;;;14.24;70.13;100762.72;1045046;28;753;-59
2021/12/30 04:27:52;;;;;;;;;;;;;;;14.24;70.14;100765.38;1045125;28;933;-59